createdAt,value
2018-08-09T00:00:56.616Z,14.83
2018-08-09T00:03:24.883Z,12.73
2018-08-09T00:05:53.150Z,12.83
2018-08-09T00:08:21.482Z,12.87
2018-08-09T00:10:49.819Z,11.70
2018-08-09T00:13:18.210Z,11.90
2018-08-09T00:15:46.458Z,9.03
2018-08-09T00:18:14.725Z,13.87
2018-08-09T00:20:42.987Z,9.70
2018-08-09T00:23:11.280Z,13.37
2018-08-09T00:25:39.542Z,13.90
2018-08-09T00:28:07.842Z,14.00
2018-08-09T00:30:36.112Z,15.53
2018-08-09T00:33:04.387Z,15.50
2018-08-09T00:35:32.644Z,14.83
2018-08-09T00:38:01.015Z,13.73
2018-08-09T00:40:29.335Z,13.70
2018-08-09T00:42:57.610Z,11.10
2018-08-09T00:45:25.907Z,11.00
2018-08-09T00:47:54.187Z,10.63
2018-08-09T00:50:22.474Z,12.10
2018-08-09T00:52:50.743Z,13.43
2018-08-09T00:55:19.094Z,11.97
2018-08-09T00:57:47.354Z,12.70
2018-08-09T01:00:15.634Z,15.50
2018-08-09T01:02:43.883Z,17.70
2018-08-09T01:05:12.182Z,17.07
2018-08-09T01:07:40.444Z,18.03
2018-08-09T01:10:08.726Z,16.03
2018-08-09T01:12:36.984Z,14.13
2018-08-09T01:15:05.482Z,16.63
2018-08-09T01:17:33.786Z,14.97
2018-08-09T01:20:02.381Z,13.93
2018-08-09T01:22:30.642Z,12.77
2018-08-09T01:24:59.003Z,16.40
2018-08-09T01:27:27.273Z,21.60
2018-08-09T01:29:55.547Z,24.83
2018-08-09T01:32:23.802Z,33.67
2018-08-09T01:34:52.079Z,60.33
2018-08-09T01:37:20.410Z,53.37
2018-08-09T01:39:48.703Z,54.03
2018-08-09T01:43:27.387Z,49.57
2018-08-09T01:45:55.905Z,50.57
2018-08-09T01:48:24.162Z,49.87
2018-08-09T01:50:52.454Z,43.90
2018-08-09T01:53:20.736Z,34.23
2018-08-09T01:55:49.006Z,34.30
2018-08-09T01:58:17.259Z,31.30
2018-08-09T02:00:45.530Z,33.33
2018-08-09T02:03:13.794Z,30.73
2018-08-09T02:05:42.070Z,26.43
2018-08-09T02:08:10.368Z,28.47
2018-08-09T02:10:38.642Z,23.00
2018-08-09T02:13:06.929Z,24.37
2018-08-09T02:15:35.235Z,22.73
2018-08-09T02:18:03.475Z,23.67
2018-08-09T02:20:31.842Z,22.57
2018-08-09T02:23:00.135Z,24.00
2018-08-09T02:25:28.441Z,21.83
2018-08-09T02:27:56.742Z,20.30
2018-08-09T02:30:25.008Z,18.63
2018-08-09T02:32:53.385Z,17.30
2018-08-09T02:35:21.635Z,17.60
2018-08-09T02:37:49.903Z,16.20
2018-08-09T02:40:18.171Z,15.07
2018-08-09T02:42:46.447Z,12.10
2018-08-09T02:45:14.716Z,13.70
2018-08-09T02:47:42.999Z,14.40
2018-08-09T02:50:11.275Z,12.43
2018-08-09T02:52:39.582Z,12.20
2018-08-09T02:55:07.996Z,10.93
2018-08-09T02:57:36.251Z,10.63
2018-08-09T03:00:05.458Z,10.97
2018-08-09T03:02:33.725Z,8.90
2018-08-09T03:05:02.128Z,9.80
2018-08-09T03:07:30.417Z,11.57
2018-08-09T03:09:58.675Z,10.13
2018-08-09T03:12:26.946Z,8.77
2018-08-09T03:14:55.207Z,8.47
2018-08-09T03:17:23.585Z,9.20
2018-08-09T03:19:51.847Z,8.90
2018-08-09T03:22:20.099Z,6.20
2018-08-09T03:24:48.358Z,8.13
2018-08-09T03:27:16.638Z,6.33
2018-08-09T03:29:44.899Z,7.13
2018-08-09T03:32:13.146Z,5.97
2018-08-09T03:34:41.425Z,7.90
2018-08-09T03:37:09.675Z,6.90
2018-08-09T03:39:37.945Z,6.40
2018-08-09T03:42:06.298Z,8.03
2018-08-09T03:44:34.574Z,6.70
2018-08-09T03:47:02.846Z,5.43
2018-08-09T03:49:31.123Z,7.33
2018-08-09T03:51:59.457Z,5.50
2018-08-09T03:54:27.675Z,5.40
2018-08-09T03:56:55.935Z,6.43
2018-08-09T03:59:24.207Z,6.97
2018-08-09T04:01:52.485Z,6.27
2018-08-09T04:04:20.764Z,5.60
2018-08-09T04:06:49.034Z,5.17
2018-08-09T04:09:17.308Z,5.30
2018-08-09T04:11:45.616Z,4.97
2018-08-09T04:14:13.842Z,4.90
2018-08-09T04:16:42.119Z,4.70
2018-08-09T04:19:10.403Z,5.83
2018-08-09T04:21:38.686Z,5.27
2018-08-09T04:24:07.138Z,3.93
2018-08-09T04:26:35.646Z,4.93
2018-08-09T04:29:03.873Z,7.67
2018-08-09T04:31:32.158Z,3.50
2018-08-09T04:34:00.457Z,6.30
2018-08-09T04:36:28.744Z,2.67
2018-08-09T04:38:57.003Z,3.63
2018-08-09T04:41:25.316Z,4.03
2018-08-09T04:43:53.674Z,3.27
2018-08-09T04:46:21.949Z,3.40
2018-08-09T04:48:50.243Z,4.77
2018-08-09T04:51:18.522Z,5.00
2018-08-09T04:53:46.811Z,4.00
2018-08-09T04:56:15.080Z,3.47
2018-08-09T04:58:43.344Z,5.60
2018-08-09T05:01:11.589Z,3.17
2018-08-09T05:03:39.861Z,3.87
2018-08-09T05:06:08.155Z,4.03
2018-08-09T05:08:36.433Z,3.20
2018-08-09T05:11:04.690Z,3.33
2018-08-09T05:13:32.959Z,3.90
2018-08-09T05:16:01.251Z,2.87
2018-08-09T05:18:29.494Z,6.03
2018-08-09T05:20:57.743Z,3.90
2018-08-09T05:23:26.030Z,6.30
2018-08-09T05:25:54.295Z,4.50
2018-08-09T05:28:22.555Z,2.77
2018-08-09T05:30:50.817Z,5.23
2018-08-09T05:33:19.090Z,5.90
2018-08-09T05:35:47.344Z,2.27
2018-08-09T05:38:15.618Z,4.23
2018-08-09T05:40:43.922Z,2.50
2018-08-09T05:43:12.214Z,3.83
2018-08-09T05:45:40.456Z,3.00
2018-08-09T05:48:08.863Z,4.67
2018-08-09T05:50:37.384Z,4.67
2018-08-09T05:53:05.950Z,3.27
2018-08-09T05:55:34.226Z,2.87
2018-08-09T05:58:02.482Z,3.20
2018-08-09T06:00:30.747Z,3.30
2018-08-09T06:02:59.017Z,3.43
2018-08-09T06:05:27.266Z,4.73
2018-08-09T06:07:55.538Z,7.20
2018-08-09T06:10:23.839Z,13.17
2018-08-09T06:12:52.110Z,9.17
2018-08-09T06:15:20.366Z,16.83
2018-08-09T06:17:48.622Z,14.03
2018-08-09T06:20:16.913Z,15.43
2018-08-09T06:22:45.198Z,11.33
2018-08-09T06:25:13.471Z,11.67
2018-08-09T06:27:41.902Z,10.80
2018-08-09T06:30:10.955Z,11.00
2018-08-09T06:32:39.734Z,10.70
2018-08-09T06:35:09.301Z,12.00
2018-08-09T06:37:38.018Z,9.80
2018-08-09T06:40:09.748Z,9.60
2018-08-09T06:42:38.043Z,7.97
2018-08-09T06:45:06.302Z,8.70
2018-08-09T06:47:34.736Z,9.60
2018-08-09T06:50:02.999Z,9.10
2018-08-09T06:52:31.318Z,26.07
2018-08-09T06:54:59.621Z,20.67
2018-08-09T06:57:27.906Z,17.07
2018-08-09T06:59:56.163Z,23.27
2018-08-09T07:02:24.434Z,22.13
2018-08-09T07:04:52.799Z,21.23
2018-08-09T07:07:21.091Z,18.17
2018-08-09T07:09:49.368Z,16.73
2018-08-09T07:12:17.635Z,17.80
2018-08-09T07:14:45.900Z,17.17
2018-08-09T07:17:14.171Z,17.93
2018-08-09T07:19:42.487Z,17.93
2018-08-09T07:22:10.903Z,22.17
2018-08-09T07:24:39.197Z,52.57
2018-08-09T07:27:07.495Z,37.87
2018-08-09T07:29:35.768Z,37.00
2018-08-09T07:32:04.046Z,34.10
2018-08-09T07:34:32.300Z,35.27
2018-08-09T07:37:00.686Z,34.07
2018-08-09T07:39:29.020Z,27.93
2018-08-09T07:41:57.275Z,31.30
2018-08-09T07:44:25.543Z,23.30
2018-08-09T07:46:53.814Z,31.93
2018-08-09T07:49:22.177Z,40.80
2018-08-09T07:51:50.468Z,45.07
2018-08-09T07:54:18.806Z,51.70
2018-08-09T07:56:47.086Z,41.10
2018-08-09T07:59:15.378Z,36.83
2018-08-09T08:01:43.659Z,32.57
2018-08-09T08:04:11.910Z,37.40
2018-08-09T08:06:40.182Z,46.23
2018-08-09T08:09:10.224Z,36.13
2018-08-09T08:11:38.478Z,32.53
2018-08-09T08:14:06.873Z,21.93
2018-08-09T08:16:35.159Z,15.07
2018-08-09T08:19:03.479Z,16.03
2018-08-09T08:21:31.764Z,16.73
2018-08-09T08:24:00.044Z,15.97
2018-08-09T08:26:28.539Z,15.50
2018-08-09T08:28:56.863Z,21.17
2018-08-09T08:31:25.151Z,24.07
2018-08-09T08:33:53.470Z,26.40
2018-08-09T08:36:21.751Z,23.60
2018-08-09T08:38:50.084Z,44.53
2018-08-09T08:41:18.424Z,32.43
2018-08-09T08:43:46.685Z,32.83
2018-08-09T08:46:15.250Z,36.90
2018-08-09T08:48:43.495Z,31.60
2018-08-09T08:51:11.779Z,31.17
2018-08-09T08:53:40.033Z,29.43
2018-08-09T08:56:09.383Z,27.63
2018-08-09T08:58:37.680Z,28.03
2018-08-09T09:01:06.015Z,27.37
2018-08-09T09:03:34.203Z,34.50
2018-08-09T09:06:02.491Z,35.63
2018-08-09T09:08:30.771Z,38.10
2018-08-09T09:10:59.100Z,45.20
2018-08-09T09:13:27.350Z,45.73
2018-08-09T09:15:55.605Z,46.07
2018-08-09T09:18:23.890Z,43.30
2018-08-09T09:20:52.134Z,39.13
2018-08-09T09:23:20.426Z,36.47
2018-08-09T09:25:48.698Z,39.13
2018-08-09T09:28:16.968Z,40.30
2018-08-09T09:30:45.264Z,42.43
2018-08-09T09:33:13.587Z,27.70
2018-08-09T09:35:41.862Z,22.20
2018-08-09T09:38:10.303Z,24.60
2018-08-09T09:40:38.560Z,23.83
2018-08-09T09:43:06.872Z,23.77
2018-08-09T09:45:35.163Z,23.43
2018-08-09T09:48:03.447Z,33.73
2018-08-09T09:50:31.751Z,42.50
2018-08-09T09:53:00.048Z,46.40
2018-08-09T09:55:28.681Z,36.50
2018-08-09T09:57:56.961Z,35.30
2018-08-09T10:00:28.679Z,35.47
2018-08-09T10:02:56.943Z,32.37
2018-08-09T10:05:25.210Z,30.20
2018-08-09T10:07:53.528Z,33.10
2018-08-09T10:10:21.922Z,30.63
2018-08-09T10:12:50.205Z,42.73
2018-08-09T10:15:18.451Z,56.40
2018-08-09T10:17:46.751Z,50.77
2018-08-09T10:20:15.028Z,55.80
2018-08-09T10:22:43.303Z,52.03
2018-08-09T10:25:11.577Z,43.33
2018-08-09T10:27:39.859Z,41.63
2018-08-09T10:30:08.802Z,47.07
2018-08-09T10:32:37.292Z,126.30
2018-08-09T10:35:05.570Z,125.67
2018-08-09T10:37:34.039Z,84.80
2018-08-09T10:40:02.406Z,42.20
2018-08-09T10:42:30.670Z,17.47
2018-08-09T10:44:58.945Z,16.13
2018-08-09T10:47:27.217Z,14.13
2018-08-09T10:49:55.491Z,14.17
2018-08-09T10:52:23.757Z,10.23
2018-08-09T10:54:52.045Z,8.07
2018-08-09T10:57:20.343Z,12.27
2018-08-09T10:59:48.631Z,9.33
2018-08-09T11:02:16.900Z,7.90
2018-08-09T11:04:45.174Z,9.43
2018-08-09T11:07:13.450Z,19.40
2018-08-09T11:09:41.796Z,21.67
2018-08-09T11:12:10.194Z,18.63
2018-08-09T11:14:38.470Z,12.33
2018-08-09T11:17:06.765Z,12.73
2018-08-09T11:19:35.025Z,9.80
2018-08-09T11:22:03.309Z,11.63
2018-08-09T11:24:31.587Z,11.40
2018-08-09T11:26:59.862Z,9.03
2018-08-09T11:29:28.160Z,8.87
2018-08-09T11:31:56.436Z,7.77
2018-08-09T11:34:24.715Z,7.07
2018-08-09T11:36:53.161Z,16.47
2018-08-09T11:39:21.444Z,27.67
2018-08-09T11:41:49.735Z,21.57
2018-08-09T11:44:18.021Z,20.10
2018-08-09T11:46:46.330Z,11.23
2018-08-09T11:49:14.666Z,14.73
2018-08-09T11:51:42.891Z,10.80
2018-08-09T11:54:12.199Z,11.27
2018-08-09T11:56:40.550Z,12.53
2018-08-09T11:59:08.817Z,8.20
2018-08-09T12:01:37.154Z,10.40
2018-08-09T12:04:05.691Z,6.43
2018-08-09T12:06:34.222Z,11.37
2018-08-09T12:09:02.562Z,9.40
2018-08-09T12:11:30.846Z,20.10
2018-08-09T12:13:59.128Z,20.80
2018-08-09T12:16:27.427Z,26.90
2018-08-09T12:18:55.747Z,31.43
2018-08-09T12:21:24.051Z,27.67
2018-08-09T12:23:52.363Z,22.50
2018-08-09T12:26:20.730Z,24.17
2018-08-09T12:28:49.204Z,23.47
2018-08-09T12:31:17.544Z,20.83
2018-08-09T12:33:45.866Z,15.07
2018-08-09T12:36:14.184Z,30.63
2018-08-09T12:38:42.551Z,22.53
2018-08-09T12:41:10.873Z,22.27
2018-08-09T12:43:39.199Z,15.07
2018-08-09T12:46:07.473Z,15.07
2018-08-09T12:48:35.895Z,16.50
2018-08-09T12:51:04.247Z,11.73
2018-08-09T12:53:32.836Z,7.57
2018-08-09T12:56:01.119Z,15.13
2018-08-09T12:58:29.427Z,13.93
2018-08-09T13:00:57.730Z,12.43
2018-08-09T13:03:26.007Z,48.90
2018-08-09T13:05:54.331Z,54.73
2018-08-09T13:08:22.754Z,75.30
2018-08-09T13:10:51.021Z,57.47
2018-08-09T13:13:19.536Z,36.77
2018-08-09T13:15:47.826Z,50.70
2018-08-09T13:18:16.139Z,54.77
2018-08-09T13:20:44.477Z,40.27
2018-08-09T13:23:12.821Z,38.33
2018-08-09T13:25:41.217Z,32.27
2018-08-09T13:28:09.521Z,30.97
2018-08-09T13:30:37.816Z,27.10
2018-08-09T13:33:07.998Z,24.60
2018-08-09T13:35:36.299Z,32.80
2018-08-09T13:38:04.714Z,28.43
2018-08-09T13:40:32.948Z,23.03
2018-08-09T13:43:01.263Z,19.77
2018-08-09T13:45:29.571Z,19.40
2018-08-09T13:47:57.876Z,16.50
2018-08-09T13:50:26.168Z,15.27
2018-08-09T13:52:54.495Z,13.87
2018-08-09T13:55:22.836Z,10.93
2018-08-09T13:57:51.104Z,14.27
2018-08-09T14:00:19.501Z,11.90
2018-08-09T14:02:47.867Z,11.03
2018-08-09T14:05:16.404Z,10.40
2018-08-09T14:07:44.841Z,11.60
2018-08-09T14:10:13.401Z,8.00
2018-08-09T14:12:42.369Z,9.33
2018-08-09T14:15:12.115Z,11.13
2018-08-09T14:17:40.597Z,12.10
2018-08-09T14:20:11.068Z,25.93
2018-08-09T14:22:39.352Z,32.03
2018-08-09T14:25:08.029Z,40.90
2018-08-09T14:27:36.356Z,37.63
2018-08-09T14:30:05.789Z,31.57
2018-08-09T14:32:34.326Z,30.07
2018-08-09T14:35:02.628Z,26.23
2018-08-09T14:37:31.105Z,20.60
2018-08-09T14:39:59.423Z,18.67
2018-08-09T14:42:27.794Z,17.80
2018-08-09T14:44:56.085Z,17.13
2018-08-09T14:47:24.392Z,17.47
2018-08-09T14:49:52.769Z,18.70
2018-08-09T14:52:21.078Z,16.77
2018-08-09T14:54:49.417Z,15.23
2018-08-09T14:57:17.789Z,18.50
2018-08-09T14:59:46.125Z,22.13
2018-08-09T15:02:14.622Z,28.77
2018-08-09T15:04:42.925Z,32.53
2018-08-09T15:07:11.252Z,26.73
2018-08-09T15:09:39.623Z,23.07
2018-08-09T15:12:08.024Z,19.77
2018-08-09T15:14:36.347Z,19.03
2018-08-09T15:17:04.695Z,14.63
2018-08-09T15:19:33.083Z,16.03
2018-08-09T15:22:01.422Z,14.03
2018-08-09T15:24:30.092Z,23.87
2018-08-09T15:26:58.395Z,23.40
2018-08-09T15:29:26.683Z,20.03
2018-08-09T15:31:55.095Z,19.23
2018-08-09T15:34:23.405Z,16.97
2018-08-09T15:36:51.709Z,16.47
2018-08-09T15:39:20.048Z,16.07
2018-08-09T15:41:48.390Z,14.90
2018-08-09T15:44:16.740Z,15.93
2018-08-09T15:46:45.114Z,12.93
2018-08-09T15:49:13.423Z,20.70
2018-08-09T15:51:41.850Z,22.93
2018-08-09T15:54:10.200Z,25.93
2018-08-09T15:56:38.559Z,34.33
2018-08-09T15:59:07.014Z,42.33
2018-08-09T16:01:35.440Z,42.40
2018-08-09T16:04:03.834Z,38.07
2018-08-09T16:06:32.181Z,31.80
2018-08-09T16:09:00.648Z,33.13
2018-08-09T16:11:28.918Z,25.53
2018-08-09T16:13:57.239Z,22.87
2018-08-09T16:16:25.628Z,23.63
2018-08-09T16:18:53.896Z,30.43
2018-08-09T16:21:22.187Z,26.97
2018-08-09T16:23:50.609Z,22.10
2018-08-09T16:26:19.028Z,22.40
2018-08-09T16:28:47.395Z,20.43
2018-08-09T16:31:15.675Z,18.83
2018-08-09T16:33:44.143Z,16.13
2018-08-09T16:36:12.413Z,18.23
2018-08-09T16:38:40.707Z,14.23
2018-08-09T16:41:09.050Z,15.27
2018-08-09T16:43:37.376Z,17.73
2018-08-09T16:46:05.984Z,17.77
2018-08-09T16:48:34.412Z,20.93
2018-08-09T16:51:02.855Z,21.97
2018-08-09T16:53:31.157Z,29.73
2018-08-09T16:55:59.418Z,31.63
2018-08-09T16:58:27.760Z,33.40
2018-08-09T17:00:59.859Z,17.03
2018-08-09T17:03:31.914Z,25.00
2018-08-09T17:06:00.598Z,21.83
2018-08-09T17:08:29.101Z,17.47
2018-08-09T17:10:57.422Z,17.33
2018-08-09T17:13:25.715Z,18.33
2018-08-09T17:15:54.052Z,24.77
2018-08-09T17:18:22.322Z,29.03
2018-08-09T17:20:50.715Z,40.97
2018-08-09T17:23:19.123Z,48.57
2018-08-09T17:25:47.541Z,46.80
2018-08-09T17:28:15.923Z,33.80
2018-08-09T17:30:44.546Z,25.70
2018-08-09T17:33:12.898Z,39.00
2018-08-09T17:35:41.479Z,40.87
2018-08-09T17:38:09.768Z,51.13
2018-08-09T17:40:38.137Z,35.23
2018-08-09T17:43:06.779Z,23.07
2018-08-09T17:45:35.726Z,16.30
2018-08-09T17:48:04.452Z,12.50
2018-08-09T17:50:33.026Z,19.70
2018-08-09T17:53:02.818Z,10.03
2018-08-09T17:55:31.919Z,7.33
2018-08-09T17:58:00.249Z,21.77
2018-08-09T18:00:31.266Z,21.43
2018-08-09T18:02:59.596Z,18.17
2018-08-09T18:05:28.119Z,15.63
2018-08-09T18:07:57.541Z,11.63
2018-08-09T18:10:28.388Z,14.30
2018-08-09T18:12:56.747Z,16.37
2018-08-09T18:15:26.502Z,16.70
2018-08-09T18:17:55.213Z,19.93
2018-08-09T18:20:25.968Z,19.23
2018-08-09T18:22:54.259Z,11.17
2018-08-09T18:25:22.830Z,13.43
2018-08-09T18:27:51.164Z,12.00
2018-08-09T18:30:20.415Z,13.87
2018-08-09T18:32:49.028Z,10.50
2018-08-09T18:35:18.848Z,11.37
2018-08-09T18:37:47.668Z,11.47
2018-08-09T18:40:17.638Z,8.10
2018-08-09T18:42:46.152Z,9.83
2018-08-09T18:45:14.562Z,7.40
2018-08-09T18:47:42.978Z,9.33
2018-08-09T18:50:14.534Z,9.07
2018-08-09T18:52:43.279Z,5.10
2018-08-09T18:55:12.573Z,16.37
2018-08-09T18:57:41.207Z,14.33
2018-08-09T19:00:12.595Z,22.70
2018-08-09T19:02:41.194Z,30.23
2018-08-09T19:05:09.798Z,33.57
2018-08-09T19:07:38.309Z,37.30
2018-08-09T19:10:09.864Z,29.50
2018-08-09T19:12:38.194Z,22.43
2018-08-09T19:15:07.714Z,17.63
2018-08-09T19:17:36.407Z,10.87
2018-08-09T19:20:06.670Z,12.50
2018-08-09T19:22:34.981Z,15.33
2018-08-09T19:25:03.934Z,13.20
2018-08-09T19:27:32.298Z,11.67
2018-08-09T19:30:00.538Z,10.73
2018-08-09T19:32:28.847Z,19.83
2018-08-09T19:34:57.220Z,18.73
2018-08-09T19:37:25.524Z,20.30
2018-08-09T19:39:53.855Z,21.07
2018-08-09T19:42:22.387Z,16.93
2018-08-09T19:44:50.710Z,11.33
2018-08-09T19:47:19.215Z,16.10
2018-08-09T19:49:47.525Z,14.23
2018-08-09T19:52:15.792Z,16.30
2018-08-09T19:54:44.287Z,17.67
2018-08-09T19:57:12.614Z,15.83
2018-08-09T19:59:41.137Z,8.77
2018-08-09T20:02:09.467Z,18.10
2018-08-09T20:04:37.754Z,34.07
2018-08-09T20:07:06.083Z,26.40
2018-08-09T20:09:34.383Z,26.33
2018-08-09T20:12:02.848Z,21.07
2018-08-09T20:14:31.211Z,23.07
2018-08-09T20:16:59.492Z,15.93
2018-08-09T20:19:27.918Z,18.13
2018-08-09T20:21:56.196Z,14.43
2018-08-09T20:24:24.482Z,16.57
2018-08-09T20:26:52.761Z,16.10
2018-08-09T20:29:21.251Z,10.70
2018-08-09T20:31:49.534Z,11.53
2018-08-09T20:34:17.895Z,7.03
2018-08-09T20:36:46.226Z,10.97
2018-08-09T20:39:14.869Z,17.50
2018-08-09T20:41:43.203Z,13.40
2018-08-09T20:44:11.663Z,18.43
2018-08-09T20:46:40.010Z,19.17
2018-08-09T20:49:08.564Z,26.00
2018-08-09T20:51:36.832Z,32.87
2018-08-09T20:54:05.193Z,58.27
2018-08-09T20:56:33.778Z,48.83
2018-08-09T20:59:02.150Z,27.60
2018-08-09T21:01:30.452Z,18.73
2018-08-09T21:03:58.846Z,26.47
2018-08-09T21:06:27.718Z,27.33
2018-08-09T21:08:56.041Z,45.43
2018-08-09T21:11:24.339Z,76.60
2018-08-09T21:13:52.723Z,75.07
2018-08-09T21:16:21.224Z,68.27
2018-08-09T21:18:49.543Z,60.90
2018-08-09T21:21:17.829Z,68.80
2018-08-09T21:23:46.151Z,64.60
2018-08-09T21:26:14.574Z,62.90
2018-08-09T21:28:42.903Z,57.10
2018-08-09T21:31:11.212Z,51.60
2018-08-09T21:33:39.519Z,62.93
2018-08-09T21:36:08.434Z,63.10
2018-08-09T21:38:36.755Z,72.43
2018-08-09T21:41:05.119Z,57.70
2018-08-09T21:43:33.937Z,60.23
2018-08-09T21:46:02.255Z,59.43
2018-08-09T21:48:30.624Z,54.63
2018-08-09T21:50:58.951Z,56.37
2018-08-09T21:53:27.263Z,54.97
2018-08-09T21:55:56.340Z,62.90
2018-08-09T21:58:24.626Z,147.33
2018-08-09T22:00:55.984Z,133.87
2018-08-09T22:03:28.332Z,122.53
2018-08-09T22:06:02.030Z,117.00
2018-08-09T22:09:39.661Z,112.57
2018-08-09T22:12:13.319Z,102.10
2018-08-09T22:15:47.660Z,111.03
2018-08-09T22:18:21.448Z,114.13
2018-08-09T22:20:55.183Z,122.47
2018-08-09T22:23:23.456Z,120.07
2018-08-09T22:25:51.736Z,115.30
2018-08-09T22:28:20.216Z,118.43
2018-08-09T22:30:48.519Z,107.33
2018-08-09T22:33:16.807Z,105.93
2018-08-09T22:35:45.091Z,98.40
2018-08-09T22:38:13.379Z,101.00
2018-08-09T22:40:41.655Z,98.03
2018-08-09T22:43:10.786Z,102.30
2018-08-09T22:45:40.024Z,99.60
2018-08-09T22:48:09.230Z,95.20
2018-08-09T22:50:37.541Z,112.47
2018-08-09T22:53:06.180Z,120.80
2018-08-09T22:55:34.921Z,116.60
2018-08-09T22:58:03.624Z,113.23
2018-08-09T23:00:31.940Z,126.87
2018-08-09T23:03:00.338Z,110.37
2018-08-09T23:05:28.900Z,113.60
2018-08-09T23:07:58.133Z,129.30
2018-08-09T23:10:26.682Z,130.33
2018-08-09T23:12:56.179Z,135.57
2018-08-09T23:15:24.526Z,132.30
2018-08-09T23:17:53.071Z,140.17
2018-08-09T23:20:21.493Z,134.57
2018-08-09T23:22:49.801Z,126.93
2018-08-09T23:25:18.160Z,123.53
2018-08-09T23:27:47.168Z,124.63
2018-08-09T23:30:15.466Z,127.23
2018-08-09T23:32:43.772Z,118.70
2018-08-09T23:35:12.074Z,123.93
2018-08-09T23:37:40.472Z,121.47
2018-08-09T23:40:10.502Z,137.00
2018-08-09T23:42:39.172Z,149.10
2018-08-09T23:45:08.656Z,149.70
2018-08-09T23:47:38.499Z,137.43
2018-08-09T23:50:08.490Z,78.33
2018-08-09T23:52:37.526Z,76.73
2018-08-09T23:55:06.473Z,99.27
2018-08-09T23:57:34.873Z,96.80
